sensor_id;sensor_type;location;lat;lon;timestamp;P1;durP1;ratioP1;P2;durP2;ratioP2
71646;SDS011;59706;45.634;11.704;2024-03-07T20:39:29;16.20;;;9.40;;
71646;SDS011;59706;45.634;11.704;2024-03-07T20:41:54;16.10;;;9.00;;
71646;SDS011;59706;45.634;11.704;2024-03-07T20:44:20;15.30;;;9.20;;
71646;SDS011;59706;45.634;11.704;2024-03-07T20:46:47;15.70;;;9.20;;
71646;SDS011;59706;45.634;11.704;2024-03-07T20:49:13;15.00;;;9.00;;
71646;SDS011;59706;45.634;11.704;2024-03-07T20:51:44;14.80;;;8.80;;
71646;SDS011;59706;45.634;11.704;2024-03-07T20:54:10;15.70;;;8.20;;
71646;SDS011;59706;45.634;11.704;2024-03-07T20:56:46;15.40;;;8.50;;
71646;SDS011;59706;45.634;11.704;2024-03-07T20:59:17;14.30;;;8.20;;
71646;SDS011;59706;45.634;11.704;2024-03-07T21:01:50;16.20;;;8.40;;
71646;SDS011;59706;45.634;11.704;2024-03-07T21:04:18;14.60;;;7.80;;
71646;SDS011;59706;45.634;11.704;2024-03-07T21:06:46;14.20;;;8.30;;
71646;SDS011;59706;45.634;11.704;2024-03-07T21:09:13;15.90;;;8.60;;
71646;SDS011;59706;45.634;11.704;2024-03-07T21:11:39;16.00;;;9.40;;
71646;SDS011;59706;45.634;11.704;2024-03-07T21:14:05;16.60;;;9.40;;
71646;SDS011;59706;45.634;11.704;2024-03-07T21:16:34;14.80;;;8.70;;
71646;SDS011;59706;45.634;11.704;2024-03-07T21:19:04;16.20;;;9.10;;
71646;SDS011;59706;45.634;11.704;2024-03-07T21:21:34;13.70;;;8.30;;
71646;SDS011;59706;45.634;11.704;2024-03-07T21:24:04;15.70;;;9.10;;
71646;SDS011;59706;45.634;11.704;2024-03-07T21:26:30;14.40;;;8.30;;
71646;SDS011;59706;45.634;11.704;2024-03-07T21:28:56;14.60;;;7.60;;
71646;SDS011;59706;45.634;11.704;2024-03-07T21:31:23;14.00;;;8.50;;
71646;SDS011;59706;45.634;11.704;2024-03-07T21:33:50;13.10;;;7.70;;
71646;SDS011;59706;45.634;11.704;2024-03-07T21:36:16;16.20;;;8.80;;
71646;SDS011;59706;45.634;11.704;2024-03-07T21:38:44;13.10;;;7.00;;
71646;SDS011;59706;45.634;11.704;2024-03-07T21:41:11;14.30;;;8.00;;
71646;SDS011;59706;45.634;11.704;2024-03-07T21:43:39;14.00;;;7.40;;
71646;SDS011;59706;45.634;11.704;2024-03-07T21:46:05;15.10;;;7.70;;
71646;SDS011;59706;45.634;11.704;2024-03-07T21:48:32;16.50;;;8.30;;
71646;SDS011;59706;45.634;11.704;2024-03-07T21:50:58;14.30;;;8.20;;
71646;SDS011;59706;45.634;11.704;2024-03-07T21:53:29;15.80;;;7.40;;
71646;SDS011;59706;45.634;11.704;2024-03-07T21:55:56;14.70;;;7.90;;
71646;SDS011;59706;45.634;11.704;2024-03-07T21:58:27;13.70;;;7.60;;
71646;SDS011;59706;45.634;11.704;2024-03-07T22:00:54;12.90;;;7.60;;
71646;SDS011;59706;45.634;11.704;2024-03-07T22:03:21;14.50;;;7.40;;
71646;SDS011;59706;45.634;11.704;2024-03-07T22:05:47;12.70;;;7.50;;
71646;SDS011;59706;45.634;11.704;2024-03-07T22:08:13;13.10;;;7.30;;
71646;SDS011;59706;45.634;11.704;2024-03-07T22:10:42;14.00;;;7.70;;
71646;SDS011;59706;45.634;11.704;2024-03-07T22:13:12;12.60;;;7.50;;
71646;SDS011;59706;45.634;11.704;2024-03-07T22:15:42;13.10;;;7.10;;
71646;SDS011;59706;45.634;11.704;2024-03-07T22:18:12;11.90;;;6.50;;
71646;SDS011;59706;45.634;11.704;2024-03-07T22:20:38;13.50;;;7.30;;
71646;SDS011;59706;45.634;11.704;2024-03-07T22:23:03;13.80;;;7.10;;
71646;SDS011;59706;45.634;11.704;2024-03-07T22:25:31;12.50;;;7.40;;
71646;SDS011;59706;45.634;11.704;2024-03-07T22:27:58;12.50;;;7.50;;
71646;SDS011;59706;45.634;11.704;2024-03-07T22:30:24;12.60;;;7.70;;
71646;SDS011;59706;45.634;11.704;2024-03-07T22:32:50;11.50;;;6.30;;
71646;SDS011;59706;45.634;11.704;2024-03-07T22:35:16;13.50;;;6.80;;
71646;SDS011;59706;45.634;11.704;2024-03-07T22:37:42;11.80;;;6.80;;
71646;SDS011;59706;45.634;11.704;2024-03-07T22:40:09;12.40;;;7.00;;
71646;SDS011;59706;45.634;11.704;2024-03-07T22:42:43;11.80;;;6.60;;
71646;SDS011;59706;45.634;11.704;2024-03-07T22:45:10;11.90;;;6.80;;
71646;SDS011;59706;45.634;11.704;2024-03-07T22:47:37;13.00;;;6.30;;
71646;SDS011;59706;45.634;11.704;2024-03-07T22:50:04;11.70;;;6.60;;
71646;SDS011;59706;45.634;11.704;2024-03-07T22:52:34;11.10;;;6.20;;
71646;SDS011;59706;45.634;11.704;2024-03-07T22:55:01;12.10;;;6.80;;
